Time;durP1;ratioP1;P1;durP2;ratioP2;P2;SDS_P1;SDS_P2;PMS_P1;PMS_P2;Temp;Humidity;BMP_temperature;BMP_pressure;BME280_temperature;BME280_humidity;BME280_pressure;Samples;Min_cycle;Max_cycle;Signal;HPM_P1;HPM_P2
2023/06/24 00:01:26;;;;;;;3.30;3.00;;;23.80;61.20;;;;;;5060208;28;20047;-70
2023/06/24 00:03:53;;;;;;;5.05;3.38;;;23.70;60.50;;;;;;5057746;28;20561;-71
2023/06/24 00:06:20;;;;;;;4.57;3.47;;;23.70;60.50;;;;;;5059365;28;20090;-71
2023/06/24 00:08:47;;;;;;;3.50;3.10;;;23.70;60.60;;;;;;5059040;28;20040;-71
2023/06/24 00:11:13;;;;;;;4.95;3.13;;;23.70;60.60;;;;;;5060481;28;20104;-71
2023/06/24 00:13:40;;;;;;;3.95;3.47;;;23.70;60.70;;;;;;5060199;28;20032;-71
2023/06/24 00:16:07;;;;;;;3.75;3.30;;;23.60;60.50;;;;;;5059189;28;20415;-73
2023/06/24 00:18:34;;;;;;;5.20;3.28;;;23.60;60.60;;;;;;5057933;28;20037;-70
2023/06/24 00:21:03;;;;;;;4.32;3.80;;;23.60;60.70;;;;;;5045835;28;20024;-71
2023/06/24 00:23:34;;;;;;;3.35;3.05;;;23.60;60.70;;;;;;5057704;28;20050;-70
2023/06/24 00:26:01;;;;;;;3.50;3.20;;;23.60;60.70;;;;;;5059861;28;20374;-69
2023/06/24 00:28:27;;;;;;;3.33;3.03;;;23.60;60.80;;;;;;5060457;28;20028;-71
2023/06/24 00:30:53;;;;;;;4.93;3.08;;;23.60;60.80;;;;;;5060948;28;20054;-70
2023/06/24 00:33:20;;;;;;;3.55;3.20;;;23.50;60.70;;;;;;5041279;28;20036;-70
2023/06/24 00:35:49;;;;;;;3.83;3.33;;;23.50;60.80;;;;;;5053687;28;20029;-76
2023/06/24 00:38:15;;;;;;;4.95;3.58;;;23.50;60.90;;;;;;5056213;28;20049;-74
2023/06/24 00:40:52;;;;;;;3.80;3.50;;;23.40;60.70;;;;;;5053481;28;20078;-72
2023/06/24 00:43:19;;;;;;;4.03;3.63;;;23.40;60.80;;;;;;5055048;28;20497;-71
2023/06/24 00:45:48;;;;;;;3.55;3.08;;;23.40;60.90;;;;;;5058714;28;20067;-71
2023/06/24 00:48:15;;;;;;;4.00;3.35;;;23.40;60.90;;;;;;5058691;28;20048;-71
2023/06/24 00:50:45;;;;;;;4.82;3.15;;;23.40;61.00;;;;;;5063113;28;20036;-71
2023/06/24 00:53:14;;;;;;;4.65;3.15;;;23.40;61.10;;;;;;5056137;28;20067;-71
2023/06/24 00:55:40;;;;;;;3.15;2.95;;;23.40;61.10;;;;;;5062547;28;20555;-71
2023/06/24 00:58:08;;;;;;;3.25;2.85;;;23.30;61.00;;;;;;5053609;28;20086;-70
2023/06/24 01:00:35;;;;;;;5.05;3.80;;;23.30;61.10;;;;;;5063524;28;20032;-72
2023/06/24 01:03:04;;;;;;;3.20;2.78;;;23.30;61.10;;;;;;5060369;28;20054;-73
2023/06/24 01:05:35;;;;;;;6.18;3.90;;;23.30;61.10;;;;;;5054468;28;20486;-72
2023/06/24 01:08:02;;;;;;;3.67;3.38;;;23.30;61.20;;;;;;5061548;28;20097;-74
2023/06/24 01:10:29;;;;;;;4.05;3.67;;;23.30;61.20;;;;;;5060360;28;20493;-74
2023/06/24 01:12:55;;;;;;;4.35;3.55;;;23.30;61.30;;;;;;5070083;28;20188;-74
2023/06/24 01:15:22;;;;;;;3.08;2.88;;;23.30;61.30;;;;;;5061846;28;20279;-71
2023/06/24 01:18:02;;;;;;;3.38;3.00;;;23.30;61.40;;;;;;5062624;28;20028;-72
2023/06/24 01:20:46;;;;;;;3.10;2.85;;;23.30;61.50;;;;;;5057284;28;20440;-71
2023/06/24 01:23:31;;;;;;;3.85;3.15;;;23.30;61.60;;;;;;5061154;28;20307;-71
2023/06/24 01:26:23;;;;;;;3.38;2.67;;;23.30;61.60;;;;;;5054564;28;20040;-72
2023/06/24 01:28:56;;;;;;;5.35;3.47;;;23.30;61.60;;;;;;5058527;28;20499;-73
2023/06/24 01:31:48;;;;;;;3.22;3.03;;;23.30;61.60;;;;;;5075970;22;20423;-79
2023/06/24 01:34:20;;;;;;;3.42;3.08;;;23.30;61.80;;;;;;5060406;28;20036;-79
2023/06/24 01:37:00;;;;;;;3.60;3.20;;;23.20;61.50;;;;;;5061906;28;20782;-79
2023/06/24 01:39:31;;;;;;;3.53;3.03;;;23.20;61.60;;;;;;5042124;28;20040;-80
2023/06/24 01:42:08;;;;;;;5.07;4.35;;;23.20;61.70;;;;;;5062217;28;20279;-79
2023/06/24 01:44:37;;;;;;;3.95;3.58;;;23.20;61.90;;;;;;5044707;28;20071;-79
2023/06/24 01:47:05;;;;;;;4.25;3.85;;;23.10;61.70;;;;;;5030437;28;20040;-79
2023/06/24 01:49:36;;;;;;;3.80;3.38;;;23.10;61.80;;;;;;5044113;28;20487;-79
2023/06/24 01:52:07;;;;;;;;;;;23.10;61.80;;;;;;5065540;28;20052;-80
2023/06/24 01:54:35;;;;;;;4.30;3.13;;;23.10;61.70;;;;;;5062973;28;19995;-79
2023/06/24 01:57:04;;;;;;;3.70;3.40;;;23.10;61.70;;;;;;5066934;28;20121;-80
2023/06/24 01:59:42;;;;;;;3.70;3.35;;;23.10;61.80;;;;;;5064616;28;20082;-79
2023/06/24 02:02:09;;;;;;;5.13;3.28;;;23.00;61.80;;;;;;5029883;28;20029;-78
2023/06/24 02:04:36;;;;;;;4.32;3.50;;;23.00;61.80;;;;;;5049812;28;20044;-78
2023/06/24 02:07:04;;;;;;;3.80;3.50;;;23.00;61.90;;;;;;5045872;28;20518;-78
2023/06/24 02:09:34;;;;;;;3.42;3.20;;;23.00;62.00;;;;;;5057158;28;20511;-78
2023/06/24 02:12:04;;;;;;;4.45;3.80;;;23.00;62.10;;;;;;5047563;28;20292;-78
2023/06/24 02:14:32;;;;;;;5.22;4.10;;;23.00;62.10;;;;;;5028541;28;20040;-78
2023/06/24 02:17:03;;;;;;;4.00;3.70;;;22.90;62.00;;;;;;5042565;28;20094;-78
2023/06/24 02:19:31;;;;;;;4.35;3.20;;;22.90;62.10;;;;;;5055357;28;20029;-79
2023/06/24 02:21:59;;;;;;;3.80;3.50;;;23.00;62.30;;;;;;5029413;28;20036;-79
2023/06/24 02:24:29;;;;;;;3.47;3.17;;;22.90;62.20;;;;;;5040587;28;20040;-78
2023/06/24 02:26:59;;;;;;;3.95;3.65;;;22.90;62.30;;;;;;5062967;28;20051;-78
2023/06/24 02:29:32;;;;;;;4.45;3.95;;;22.90;62.40;;;;;;5049198;28;20028;-77
2023/06/24 02:31:59;;;;;;;4.43;3.33;;;22.80;62.20;;;;;;5050588;28;20094;-78
2023/06/24 02:34:25;;;;;;;4.05;3.65;;;22.80;62.30;;;;;;5048565;28;20114;-78
2023/06/24 02:36:52;;;;;;;4.00;3.60;;;22.80;62.30;;;;;;5058812;28;20044;-78
2023/06/24 02:39:20;;;;;;;4.13;3.72;;;22.80;62.40;;;;;;5022809;28;20453;-78
2023/06/24 02:41:49;;;;;;;5.05;3.75;;;22.80;62.50;;;;;;5045425;28;20036;-78
2023/06/24 02:44:16;;;;;;;4.40;3.58;;;22.70;62.30;;;;;;5052210;28;20386;-78
2023/06/24 02:46:44;;;;;;;4.93;3.88;;;22.70;62.40;;;;;;5035111;28;20033;-78
2023/06/24 02:49:13;;;;;;;5.78;3.72;;;22.70;62.50;;;;;;5028576;28;20630;-78
2023/06/24 02:51:40;;;;;;;4.32;3.92;;;22.70;62.60;;;;;;5046838;28;20046;-78
2023/06/24 02:54:06;;;;;;;4.00;3.67;;;22.70;62.60;;;;;;5044864;28;20040;-79
2023/06/24 02:56:57;;;;;;;5.38;4.05;;;22.70;62.70;;;;;;5020320;28;20040;-78
2023/06/24 02:59:33;;;;;;;4.00;3.65;;;22.70;62.70;;;;;;5032838;28;20535;-78
2023/06/24 03:02:03;;;;;;;4.28;3.88;;;22.60;62.60;;;;;;5043637;28;20567;-79
2023/06/24 03:04:30;;;;;;;4.50;3.80;;;22.60;62.80;;;;;;5033280;28;20127;-79
2023/06/24 03:06:59;;;;;;;4.68;4.22;;;22.60;62.90;;;;;;5015822;28;20036;-79
2023/06/24 03:09:27;;;;;;;5.03;4.60;;;22.50;62.80;;;;;;5018084;28;20345;-80
2023/06/24 03:11:53;;;;;;;4.03;3.72;;;22.50;62.80;;;;;;5031586;28;20047;-78
2023/06/24 03:14:30;;;;;;;4.85;4.20;;;22.50;62.90;;;;;;5020987;28;20702;-78
2023/06/24 03:16:57;;;;;;;4.13;3.72;;;22.50;63.00;;;;;;5044407;28;20039;-78
2023/06/24 03:19:25;;;;;;;4.63;4.10;;;22.50;63.10;;;;;;5040523;28;20466;-77
2023/06/24 03:21:51;;;;;;;5.00;3.90;;;22.50;63.20;;;;;;5044490;28;20054;-78
2023/06/24 03:24:18;;;;;;;4.63;4.18;;;22.40;63.00;;;;;;5042136;28;20037;-78
2023/06/24 03:26:50;;;;;;;5.00;4.53;;;22.40;63.00;;;;;;5023988;28;20040;-79
2023/06/24 03:29:17;;;;;;;5.43;3.83;;;22.40;63.00;;;;;;5029920;28;20109;-79
2023/06/24 03:32:02;;;;;;;4.20;3.65;;;22.40;63.20;;;;;;5045305;28;20048;-80
2023/06/24 03:34:28;;;;;;;4.40;4.00;;;22.30;63.00;;;;;;5030192;28;20033;-79
2023/06/24 03:36:57;;;;;;;5.70;4.20;;;22.30;63.10;;;;;;5050532;28;20025;-79
2023/06/24 03:39:28;;;;;;;4.90;4.50;;;22.30;63.20;;;;;;5032762;28;20037;-79
2023/06/24 03:41:56;;;;;;;4.80;4.00;;;22.30;63.20;;;;;;5042099;28;20075;-79
2023/06/24 03:44:22;;;;;;;4.15;3.42;;;22.30;63.30;;;;;;5049881;28;20049;-78
2023/06/24 03:46:51;;;;;;;4.63;4.22;;;22.30;63.40;;;;;;5036685;28;20047;-79
2023/06/24 03:49:21;;;;;;;4.05;3.70;;;22.30;63.50;;;;;;5045801;28;20025;-79
2023/06/24 03:51:51;;;;;;;5.18;4.00;;;22.30;63.50;;;;;;5034918;28;20064;-80
2023/06/24 03:54:17;;;;;;;5.05;4.43;;;22.20;63.50;;;;;;5045397;28;20071;-79
2023/06/24 03:56:44;;;;;;;5.78;5.20;;;22.20;63.50;;;;;;5032836;28;20037;-79
2023/06/24 03:59:13;;;;;;;4.88;3.78;;;22.20;63.60;;;;;;5029461;28;20537;-79
2023/06/24 04:01:42;;;;;;;4.32;3.75;;;22.20;63.70;;;;;;5046673;28;20040;-79
2023/06/24 04:04:09;;;;;;;4.40;4.00;;;22.20;63.80;;;;;;5032638;28;20028;-79
2023/06/24 04:06:35;;;;;;;4.53;4.00;;;22.20;63.80;;;;;;5050089;28;20040;-80
2023/06/24 04:09:02;;;;;;;5.18;4.00;;;22.20;63.90;;;;;;5046601;28;20396;-80
2023/06/24 04:11:28;;;;;;;5.10;4.55;;;22.20;64.00;;;;;;5043244;28;20050;-79
2023/06/24 04:13:54;;;;;;;4.65;4.25;;;22.20;64.10;;;;;;5023232;28;20029;-80
2023/06/24 04:16:21;;;;;;;5.65;4.18;;;22.20;64.10;;;;;;5028414;28;20110;-79
2023/06/24 04:18:47;;;;;;;4.57;4.18;;;22.20;64.10;;;;;;5044426;28;20358;-79
2023/06/24 04:21:14;;;;;;;4.93;4.53;;;22.20;64.10;;;;;;5024117;28;20126;-80
2023/06/24 04:23:40;;;;;;;4.70;4.10;;;22.20;64.20;;;;;;5045395;28;20513;-80
2023/06/24 04:26:07;;;;;;;4.57;4.20;;;22.20;64.30;;;;;;5030459;28;20571;-79
2023/06/24 04:28:33;;;;;;;4.72;3.65;;;22.20;64.40;;;;;;5032395;28;20072;-79
2023/06/24 04:31:01;;;;;;;4.68;4.35;;;22.20;64.40;;;;;;5027195;28;20090;-79
2023/06/24 04:33:27;;;;;;;5.88;4.32;;;22.10;64.30;;;;;;5045596;28;20504;-80
2023/06/24 04:35:53;;;;;;;4.90;4.50;;;22.20;64.50;;;;;;5036260;28;20045;-81
2023/06/24 04:38:20;;;;;;;4.70;4.30;;;22.20;64.60;;;;;;5037564;28;20060;-80
2023/06/24 04:40:48;;;;;;;4.68;4.20;;;22.20;64.70;;;;;;5025327;28;20512;-81
2023/06/24 04:43:14;;;;;;;4.53;4.13;;;22.20;64.70;;;;;;5030864;28;20415;-80
2023/06/24 04:45:40;;;;;;;4.28;3.97;;;22.20;64.70;;;;;;5056256;28;20131;-81
2023/06/24 04:48:09;;;;;;;4.90;4.22;;;22.20;64.70;;;;;;5059290;28;20500;-80
2023/06/24 04:50:36;;;;;;;4.90;4.47;;;22.20;64.80;;;;;;5054449;28;20051;-80
2023/06/24 04:53:02;;;;;;;5.35;4.10;;;22.20;64.80;;;;;;5035020;28;20480;-80
2023/06/24 04:55:29;;;;;;;4.28;3.92;;;22.20;64.90;;;;;;5060486;28;20036;-79
2023/06/24 04:57:56;;;;;;;4.53;3.95;;;22.20;64.90;;;;;;5032770;28;20062;-79
2023/06/24 05:00:24;;;;;;;4.20;3.85;;;22.30;65.10;;;;;;5047925;28;20562;-80
2023/06/24 05:02:50;;;;;;;4.60;4.20;;;22.30;65.00;;;;;;5047265;28;20064;-80
2023/06/24 05:05:17;;;;;;;4.28;3.95;;;22.30;65.00;;;;;;5051872;28;20045;-79
2023/06/24 05:07:43;;;;;;;3.95;3.63;;;22.40;65.10;;;;;;5030070;28;20115;-78
2023/06/24 05:10:09;;;;;;;4.38;3.97;;;22.50;65.20;;;;;;5035597;28;20547;-77
2023/06/24 05:12:35;;;;;;;4.78;4.30;;;22.50;65.20;;;;;;5053512;28;20072;-78
2023/06/24 05:15:02;;;;;;;4.60;4.20;;;22.70;65.40;;;;;;5057082;28;20281;-79
2023/06/24 05:17:31;;;;;;;4.70;3.95;;;22.70;65.30;;;;;;5040477;28;20062;-79
2023/06/24 05:19:57;;;;;;;5.03;4.57;;;22.80;65.30;;;;;;5035956;28;20063;-80
2023/06/24 05:22:23;;;;;;;4.53;4.13;;;22.80;65.20;;;;;;5035928;28;20033;-79
2023/06/24 05:24:49;;;;;;;4.32;3.95;;;22.90;65.40;;;;;;5046265;28;20328;-78
2023/06/24 05:27:19;;;;;;;3.92;3.63;;;22.90;65.30;;;;;;5021460;28;20122;-80
2023/06/24 05:29:48;;;;;;;4.72;4.10;;;22.90;65.20;;;;;;5052392;28;20056;-79
2023/06/24 05:32:20;;;;;;;4.60;4.18;;;22.90;65.20;;;;;;5051442;28;20075;-79
2023/06/24 05:34:47;;;;;;;10.75;4.43;;;23.00;65.50;;;;;;5035415;28;20035;-80
2023/06/24 05:37:14;;;;;;;5.60;3.67;;;23.00;65.40;;;;;;5038457;28;20550;-79
2023/06/24 05:39:40;;;;;;;3.85;3.53;;;23.00;65.40;;;;;;5034582;28;20032;-77
2023/06/24 05:42:06;;;;;;;4.20;3.90;;;23.10;65.60;;;;;;5033012;28;20531;-76
2023/06/24 05:44:33;;;;;;;3.88;3.58;;;23.10;65.70;;;;;;5037629;28;20060;-77
2023/06/24 05:46:59;;;;;;;3.55;3.25;;;23.10;65.90;;;;;;5045144;28;20076;-77
2023/06/24 05:49:26;;;;;;;3.97;3.60;;;23.10;66.20;;;;;;5043865;28;20373;-76
2023/06/24 05:51:52;;;;;;;3.75;3.35;;;23.20;66.60;;;;;;5044412;28;20048;-76
2023/06/24 05:54:18;;;;;;;4.15;3.85;;;23.30;67.00;;;;;;5043442;28;20043;-78
2023/06/24 05:56:44;;;;;;;3.83;3.40;;;23.40;67.20;;;;;;5044798;28;20620;-79
2023/06/24 05:59:11;;;;;;;4.00;3.50;;;23.50;67.30;;;;;;5045835;28;20101;-79
2023/06/24 06:01:37;;;;;;;4.15;3.58;;;23.70;67.50;;;;;;5043152;28;20041;-78
2023/06/24 06:04:03;;;;;;;3.72;3.40;;;23.80;67.50;;;;;;5036109;28;20043;-79
2023/06/24 06:06:29;;;;;;;4.18;3.80;;;24.00;67.70;;;;;;5027272;28;20044;-78
2023/06/24 06:08:57;;;;;;;5.80;3.97;;;24.20;67.80;;;;;;5042819;28;20086;-78
2023/06/24 06:11:23;;;;;;;4.00;3.63;;;24.50;68.00;;;;;;5044527;28;20048;-78
2023/06/24 06:13:49;;;;;;;4.20;3.80;;;24.80;67.90;;;;;;5035391;28;20037;-80
2023/06/24 06:16:25;;;;;;;4.28;3.88;;;25.10;67.60;;;;;;5047943;28;20140;-79
2023/06/24 06:18:54;;;;;;;4.28;3.85;;;25.30;67.10;;;;;;5035138;28;20041;-79
2023/06/24 06:21:20;;;;;;;4.85;4.32;;;25.50;66.70;;;;;;5039706;28;20032;-78
2023/06/24 06:23:46;;;;;;;4.78;4.28;;;25.60;66.40;;;;;;5028865;28;20029;-78
2023/06/24 06:26:12;;;;;;;6.45;4.00;;;25.70;66.10;;;;;;5034918;28;20403;-78
2023/06/24 06:28:39;;;;;;;4.47;3.92;;;25.80;65.90;;;;;;5035942;28;20233;-78
2023/06/24 06:31:05;;;;;;;4.32;3.90;;;26.10;65.70;;;;;;5038848;28;20048;-78
2023/06/24 06:33:31;;;;;;;4.70;3.90;;;26.20;65.20;;;;;;5045234;28;20040;-78
2023/06/24 06:35:58;;;;;;;4.55;3.92;;;26.30;64.70;;;;;;5046579;28;20116;-78
2023/06/24 06:38:25;;;;;;;3.53;3.22;;;26.50;64.90;;;;;;5029132;28;20021;-77
2023/06/24 06:40:53;;;;;;;4.90;4.40;;;26.70;64.10;;;;;;5046818;28;20043;-79
2023/06/24 06:43:21;;;;;;;4.45;4.05;;;26.70;63.80;;;;;;5024921;28;20551;-78
2023/06/24 06:45:47;;;;;;;4.40;4.00;;;26.80;63.50;;;;;;5042860;28;20044;-78
2023/06/24 06:48:13;;;;;;;4.93;3.97;;;26.90;63.40;;;;;;5040800;28;20546;-77
2023/06/24 06:50:39;;;;;;;4.72;3.80;;;27.00;63.10;;;;;;5040928;28;20024;-77
2023/06/24 06:53:05;;;;;;;5.30;4.07;;;27.10;63.00;;;;;;5039368;28;20095;-77
2023/06/24 06:55:31;;;;;;;6.03;4.30;;;27.10;62.70;;;;;;5027617;28;20115;-77
2023/06/24 06:57:57;;;;;;;4.53;3.50;;;27.10;62.50;;;;;;5033910;28;20021;-78
2023/06/24 07:00:24;;;;;;;4.57;4.00;;;27.20;62.40;;;;;;5045087;28;20059;-78
2023/06/24 07:02:50;;;;;;;5.32;4.60;;;27.20;62.30;;;;;;5025916;28;20136;-89
2023/06/24 07:05:16;;;;;;;10.32;4.28;;;27.20;62.10;;;;;;5029828;28;20056;-87
2023/06/24 07:08:06;;;;;;;10.93;4.72;;;27.30;61.90;;;;;;4955136;28;20105;-81
2023/06/24 07:10:32;;;;;;;7.82;4.28;;;27.30;61.80;;;;;;4960271;28;20035;-81
2023/06/24 07:12:58;;;;;;;4.43;4.03;;;27.30;61.70;;;;;;4969797;28;20046;-80
2023/06/24 07:15:25;;;;;;;5.00;4.53;;;27.30;61.60;;;;;;4966762;28;20041;-81
2023/06/24 07:17:53;;;;;;;5.72;4.15;;;27.40;61.50;;;;;;4955440;28;20049;-83
2023/06/24 07:20:20;;;;;;;4.85;3.53;;;27.40;61.40;;;;;;5040281;28;20052;-83
2023/06/24 07:22:46;;;;;;;5.07;4.07;;;27.50;61.30;;;;;;5034785;28;20040;-82
2023/06/24 07:25:15;;;;;;;5.35;4.50;;;27.70;61.30;;;;;;5046727;28;20412;-79
2023/06/24 07:27:48;;;;;;;4.50;4.10;;;27.80;61.10;;;;;;5042685;28;20079;-79
2023/06/24 07:30:14;;;;;;;6.65;4.47;;;28.10;60.80;;;;;;5039692;28;20072;-81
2023/06/24 07:32:43;;;;;;;7.55;3.85;;;28.40;60.40;;;;;;5043875;28;20465;-81
2023/06/24 07:35:10;;;;;;;5.35;3.50;;;28.80;59.90;;;;;;5019356;28;20672;-80
2023/06/24 07:37:38;;;;;;;4.60;3.92;;;29.20;59.20;;;;;;5044874;28;20539;-80
2023/06/24 07:40:07;;;;;;;3.97;3.58;;;29.50;58.30;;;;;;5044626;28;20119;-79
2023/06/24 07:42:34;;;;;;;4.53;4.20;;;29.70;57.70;;;;;;5046770;28;20038;-80
2023/06/24 07:45:00;;;;;;;5.38;4.25;;;29.70;57.60;;;;;;5013013;28;20130;-82
2023/06/24 07:47:26;;;;;;;5.78;4.55;;;29.60;57.60;;;;;;5039072;28;20067;-80
2023/06/24 07:49:52;;;;;;;4.55;4.15;;;29.60;57.70;;;;;;5047225;28;20040;-81
2023/06/24 07:52:18;;;;;;;4.65;4.05;;;29.50;57.70;;;;;;5049390;28;20044;-79
2023/06/24 07:54:45;;;;;;;6.22;5.07;;;29.50;57.70;;;;;;5045237;28;20046;-76
2023/06/24 07:57:20;;;;;;;5.18;4.63;;;29.50;57.70;;;;;;5040779;28;20042;-77
2023/06/24 07:59:47;;;;;;;10.25;5.20;;;29.80;57.60;;;;;;5047974;28;20037;-77
2023/06/24 08:02:31;;;;;;;14.77;7.13;;;30.20;57.00;;;;;;5047769;28;20031;-78
2023/06/24 08:04:57;;;;;;;14.52;7.45;;;30.60;56.10;;;;;;5044883;28;20033;-77
2023/06/24 08:07:30;;;;;;;21.13;9.00;;;30.80;56.40;;;;;;5033252;28;20494;-79
2023/06/24 08:09:56;;;;;;;21.95;9.68;;;30.90;55.70;;;;;;5022148;28;20510;-77
2023/06/24 08:12:22;;;;;;;22.35;9.38;;;30.90;55.60;;;;;;5049890;28;20041;-78
2023/06/24 08:14:48;;;;;;;17.38;9.98;;;31.00;55.40;;;;;;5044930;28;20115;-79
2023/06/24 08:17:20;;;;;;;22.83;9.50;;;31.00;55.30;;;;;;5046919;28;20031;-78
2023/06/24 08:19:46;;;;;;;18.63;8.93;;;31.10;55.20;;;;;;5044277;28;20125;-78
2023/06/24 08:22:12;;;;;;;21.45;10.90;;;31.20;55.00;;;;;;5046703;28;20037;-78
2023/06/24 08:24:40;;;;;;;22.20;9.98;;;31.40;54.80;;;;;;5034157;28;20071;-78
2023/06/24 08:27:06;;;;;;;21.20;10.55;;;31.50;54.50;;;;;;5042452;28;20927;-79
2023/06/24 08:29:32;;;;;;;19.63;8.73;;;31.60;54.30;;;;;;5049305;28;20040;-79
2023/06/24 08:31:58;;;;;;;21.60;9.40;;;31.70;54.10;;;;;;5044988;28;20438;-79
2023/06/24 08:34:24;;;;;;;18.92;9.77;;;31.90;53.90;;;;;;5042158;28;20136;-78
2023/06/24 08:36:51;;;;;;;18.95;9.57;;;32.00;53.70;;;;;;5029629;28;20040;-79
2023/06/24 08:39:17;;;;;;;17.27;9.32;;;32.10;53.50;;;;;;5045780;28;20499;-77
2023/06/24 08:41:43;;;;;;;15.88;8.45;;;32.20;53.30;;;;;;5030715;28;20048;-77
2023/06/24 08:44:09;;;;;;;12.05;8.48;;;32.30;53.10;;;;;;5046729;28;20028;-78
2023/06/24 08:46:36;;;;;;;13.80;8.00;;;32.50;52.90;;;;;;5045902;28;20552;-79
2023/06/24 08:49:29;;;;;;;14.25;7.60;;;32.50;52.60;;;;;;5060724;28;20029;-78
2023/06/24 08:52:15;;;;;;;10.60;7.13;;;32.60;52.40;;;;;;5049468;28;20037;-79
2023/06/24 08:54:45;;;;;;;11.23;7.22;;;32.70;52.30;;;;;;5045267;28;20384;-81
2023/06/24 08:57:15;;;;;;;8.32;6.45;;;32.80;52.20;;;;;;5030505;28;20033;-79
2023/06/24 08:59:42;;;;;;;10.85;6.68;;;32.70;52.10;;;;;;5043035;28;20041;-80
2023/06/24 09:02:08;;;;;;;9.27;6.28;;;32.70;52.00;;;;;;5029965;28;20424;-78
2023/06/24 09:04:35;;;;;;;9.02;5.90;;;32.70;52.00;;;;;;5012782;28;20167;-78
2023/06/24 09:07:01;;;;;;;8.32;6.22;;;32.70;51.90;;;;;;5049351;28;20048;-77
2023/06/24 09:09:28;;;;;;;7.05;5.60;;;32.70;51.80;;;;;;5049947;28;20033;-77
2023/06/24 09:11:59;;;;;;;10.20;6.45;;;32.70;51.70;;;;;;5049725;28;20036;-79
2023/06/24 09:14:29;;;;;;;7.47;5.47;;;32.80;51.70;;;;;;5044579;28;20401;-78
2023/06/24 09:16:58;;;;;;;8.70;6.15;;;32.90;51.60;;;;;;5046681;28;20559;-77
2023/06/24 09:19:29;;;;;;;8.65;5.63;;;33.00;51.40;;;;;;5047072;28;20039;-77
2023/06/24 09:22:06;;;;;;;7.43;5.90;;;33.10;51.20;;;;;;5047040;28;20021;-77
2023/06/24 09:24:37;;;;;;;7.45;4.97;;;33.30;50.80;;;;;;5026741;28;20048;-80
2023/06/24 09:27:04;;;;;;;5.15;4.65;;;33.60;50.70;;;;;;5036841;28;20441;-79
2023/06/24 09:29:35;;;;;;;6.18;4.53;;;33.70;50.50;;;;;;5039432;28;20032;-79
2023/06/24 09:32:08;;;;;;;7.18;4.95;;;33.80;50.30;;;;;;5036210;28;20102;-79
2023/06/24 09:34:38;;;;;;;6.22;4.80;;;34.10;49.90;;;;;;5034666;28;20104;-78
2023/06/24 09:37:05;;;;;;;5.75;4.53;;;34.50;49.50;;;;;;5048398;28;20495;-80
2023/06/24 09:39:36;;;;;;;5.15;3.95;;;34.80;48.90;;;;;;5036365;28;20279;-79
2023/06/24 09:42:04;;;;;;;5.70;4.50;;;35.10;48.50;;;;;;5034264;28;20029;-79
2023/06/24 09:44:31;;;;;;;5.03;4.10;;;35.20;48.20;;;;;;5028290;28;20067;-80
2023/06/24 09:46:57;;;;;;;4.50;4.10;;;35.20;48.10;;;;;;5050541;28;20033;-79
2023/06/24 09:49:24;;;;;;;5.30;4.13;;;35.20;48.10;;;;;;5052820;28;20494;-79
2023/06/24 09:51:57;;;;;;;4.65;3.75;;;35.00;48.10;;;;;;5045103;28;20131;-79
2023/06/24 09:54:28;;;;;;;4.22;3.85;;;35.00;48.10;;;;;;5032399;28;20226;-79
2023/06/24 09:56:59;;;;;;;4.93;3.60;;;35.10;47.90;;;;;;5042189;28;20044;-79
2023/06/24 09:59:26;;;;;;;4.95;3.60;;;35.20;47.80;;;;;;5049024;28;20033;-78
2023/06/24 10:01:54;;;;;;;4.55;4.15;;;35.10;47.70;;;;;;5041970;28;20071;-79
2023/06/24 10:04:24;;;;;;;4.75;3.53;;;35.00;47.70;;;;;;5025736;28;20045;-80
2023/06/24 10:06:51;;;;;;;4.53;3.80;;;34.90;47.70;;;;;;5039086;28;20040;-79
2023/06/24 10:09:18;;;;;;;3.42;3.08;;;35.00;47.60;;;;;;5037997;28;20499;-78
2023/06/24 10:11:47;;;;;;;4.63;3.55;;;35.10;47.40;;;;;;5036495;28;20028;-79
2023/06/24 10:14:18;;;;;;;3.92;3.33;;;35.20;47.20;;;;;;5038842;28;20029;-79
2023/06/24 10:16:44;;;;;;;3.53;3.22;;;35.10;47.20;;;;;;5056039;28;20041;-78
2023/06/24 10:19:21;;;;;;;3.38;3.05;;;34.90;47.30;;;;;;5037665;28;20719;-79
2023/06/24 10:21:52;;;;;;;3.70;3.40;;;34.80;47.30;;;;;;5053661;28;20045;-83
2023/06/24 10:24:42;;;;;;;4.78;4.32;;;34.90;47.30;;;;;;5038480;28;20033;-80
2023/06/24 10:27:14;;;;;;;3.38;3.08;;;34.80;47.00;;;;;;5043130;28;20068;-81
2023/06/24 10:29:48;;;;;;;4.32;3.35;;;34.80;47.20;;;;;;5053778;28;20745;-78
2023/06/24 10:32:22;;;;;;;3.47;3.17;;;34.80;47.10;;;;;;5050069;28;20114;-78
2023/06/24 10:34:56;;;;;;;3.40;3.10;;;34.80;47.10;;;;;;5053455;28;20091;-79
2023/06/24 10:37:32;;;;;;;3.50;3.20;;;34.90;47.00;;;;;;5036925;28;20053;-80
2023/06/24 10:40:00;;;;;;;3.35;3.05;;;34.90;46.90;;;;;;5028353;28;20033;-79
2023/06/24 10:42:37;;;;;;;4.22;3.83;;;35.00;46.90;;;;;;5053879;28;20041;-81
2023/06/24 10:45:09;;;;;;;5.95;3.97;;;35.00;46.60;;;;;;5041644;28;20052;-81
2023/06/24 10:47:47;;;;;;;3.58;3.28;;;35.10;46.40;;;;;;5058100;28;20035;-83
2023/06/24 10:50:21;;;;;;;4.43;3.92;;;35.20;46.00;;;;;;5048955;28;20041;-84
2023/06/24 10:52:48;;;;;;;4.03;3.53;;;35.40;45.70;;;;;;5034422;28;20032;-84
2023/06/24 10:55:16;;;;;;;4.22;3.83;;;35.50;45.30;;;;;;5046485;28;20345;-86
2023/06/24 10:57:43;;;;;;;5.20;3.72;;;35.50;45.10;;;;;;5051323;28;20049;-83
2023/06/24 11:00:10;;;;;;;3.92;3.63;;;35.40;45.10;;;;;;5042142;28;20043;-85
2023/06/24 11:02:36;;;;;;;3.95;3.38;;;35.40;45.10;;;;;;5035602;28;20499;-83
2023/06/24 11:05:04;;;;;;;4.88;3.95;;;35.40;45.00;;;;;;5038834;28;20040;-84
2023/06/24 11:07:38;;;;;;;4.63;3.33;;;35.40;44.90;;;;;;5037132;28;20107;-85
2023/06/24 11:10:11;;;;;;;4.20;3.83;;;35.20;44.80;;;;;;5050383;28;20164;-89
2023/06/24 11:12:39;;;;;;;4.30;3.22;;;35.20;45.10;;;;;;5054679;28;20058;-83
2023/06/24 11:15:13;;;;;;;4.53;4.13;;;35.10;45.20;;;;;;5032850;28;20043;-82
2023/06/24 11:17:41;;;;;;;4.07;3.50;;;35.10;45.20;;;;;;5051388;28;20551;-84
2023/06/24 11:20:09;;;;;;;3.83;3.40;;;35.30;45.10;;;;;;5037763;28;20326;-85
2023/06/24 11:22:35;;;;;;;3.53;3.08;;;35.40;44.70;;;;;;5051217;28;20039;-80
2023/06/24 11:25:01;;;;;;;3.65;3.25;;;35.50;44.60;;;;;;5044169;28;20028;-81
2023/06/24 11:27:32;;;;;;;3.38;2.95;;;35.40;44.60;;;;;;5019081;28;20044;-82
2023/06/24 11:30:02;;;;;;;3.63;3.33;;;35.20;44.80;;;;;;5045760;28;20040;-79
2023/06/24 11:32:39;;;;;;;3.80;3.40;;;35.20;44.90;;;;;;5044854;28;20080;-78
2023/06/24 11:35:07;;;;;;;4.60;3.50;;;35.20;45.00;;;;;;5041634;28;20203;-82
2023/06/24 11:37:33;;;;;;;4.80;3.30;;;35.20;44.90;;;;;;5051871;28;20037;-82
2023/06/24 11:40:09;;;;;;;4.82;3.28;;;35.20;44.80;;;;;;5027001;28;20328;-80
2023/06/24 11:42:40;;;;;;;3.70;2.92;;;35.20;44.90;;;;;;5045940;28;20386;-82
2023/06/24 11:45:21;;;;;;;5.47;3.25;;;35.00;45.00;;;;;;5038005;28;20533;-81
2023/06/24 11:47:48;;;;;;;3.58;3.17;;;34.80;45.50;;;;;;5035054;28;20028;-81
2023/06/24 11:50:14;;;;;;;4.78;4.38;;;34.90;45.70;;;;;;5025728;28;20584;-85
2023/06/24 11:52:50;;;;;;;6.25;4.03;;;35.10;45.40;;;;;;5046216;28;20188;-81
2023/06/24 11:55:25;;;;;;;4.97;3.42;;;35.40;45.10;;;;;;5032922;28;20044;-80
2023/06/24 11:58:01;;;;;;;5.50;3.80;;;35.70;44.80;;;;;;5030577;28;20491;-78
2023/06/24 12:00:38;;;;;;;5.43;4.07;;;36.00;44.60;;;;;;5043944;28;20039;-79
2023/06/24 12:03:06;;;;;;;8.10;5.05;;;36.10;44.30;;;;;;5018591;28;20024;-81
2023/06/24 12:05:34;;;;;;;8.52;4.70;;;36.10;44.40;;;;;;5035618;28;20082;-81
2023/06/24 12:08:11;;;;;;;10.73;5.73;;;36.00;44.50;;;;;;5035318;28;20033;-80
2023/06/24 12:10:38;;;;;;;10.27;5.85;;;35.90;44.80;;;;;;5032836;28;20642;-80
2023/06/24 12:13:06;;;;;;;8.00;4.80;;;35.90;45.00;;;;;;5024653;28;20033;-79
2023/06/24 12:15:38;;;;;;;9.82;5.80;;;36.20;45.00;;;;;;5048592;28;20519;-85
2023/06/24 12:18:30;;;;;;;6.45;5.05;;;36.60;44.60;;;;;;5008972;28;20508;-84
2023/06/24 12:20:56;;;;;;;6.70;4.82;;;37.10;44.10;;;;;;5039640;28;20036;-89
2023/06/24 12:23:22;;;;;;;6.40;4.72;;;37.50;43.60;;;;;;5038342;28;20064;-78
2023/06/24 12:25:48;;;;;;;5.15;3.72;;;37.70;43.20;;;;;;5038050;28;20155;-78
2023/06/24 12:28:14;;;;;;;6.13;3.92;;;37.60;43.00;;;;;;5049257;28;20047;-77
2023/06/24 12:30:40;;;;;;;4.43;3.78;;;37.40;43.20;;;;;;5051462;28;20552;-80
2023/06/24 12:33:08;;;;;;;5.43;4.22;;;37.20;43.50;;;;;;5039620;28;20106;-80
2023/06/24 12:35:34;;;;;;;4.55;3.25;;;37.00;43.70;;;;;;5044105;28;20037;-80
2023/06/24 12:38:03;;;;;;;4.22;3.83;;;36.90;43.90;;;;;;5041230;28;20067;-79
2023/06/24 12:40:29;;;;;;;4.85;3.33;;;36.90;44.10;;;;;;5041972;28;20119;-78
2023/06/24 12:42:57;;;;;;;4.38;3.30;;;37.20;44.00;;;;;;5039801;28;20021;-79
2023/06/24 12:45:23;;;;;;;3.95;3.58;;;37.60;43.60;;;;;;5031346;28;20195;-78
2023/06/24 12:47:50;;;;;;;3.13;2.88;;;38.20;43.20;;;;;;5039878;28;20040;-81
2023/06/24 12:50:31;;;;;;;4.32;3.28;;;38.60;42.70;;;;;;5034766;28;20068;-80
2023/06/24 12:52:58;;;;;;;19.15;4.53;;;38.80;42.10;;;;;;5044631;28;20052;-81
2023/06/24 12:55:24;;;;;;;5.25;3.40;;;38.90;41.60;;;;;;5023512;28;20118;-82